sensor_id;sensor_type;location;lat;lon;timestamp;pressure;altitude;pressure_sealevel;temperature;humidity
27144;BME280;14672;50.250;8.312;2024-03-22T00:01:54;99532.47;;;10.81;66.09
27144;BME280;14672;50.250;8.312;2024-03-22T00:04:20;99527.84;;;10.71;66.11
27144;BME280;14672;50.250;8.312;2024-03-22T00:06:48;99520.22;;;10.68;65.83
27144;BME280;14672;50.250;8.312;2024-03-22T00:09:15;99516.66;;;10.64;65.45
27144;BME280;14672;50.250;8.312;2024-03-22T00:11:42;99516.31;;;10.62;65.56
27144;BME280;14672;50.250;8.312;2024-03-22T00:14:09;99517.13;;;10.62;66.51
27144;BME280;14672;50.250;8.312;2024-03-22T00:16:35;99514.00;;;10.57;66.16
27144;BME280;14672;50.250;8.312;2024-03-22T00:19:01;99506.47;;;10.66;66.09
27144;BME280;14672;50.250;8.312;2024-03-22T00:21:28;99509.31;;;10.66;66.03
27144;BME280;14672;50.250;8.312;2024-03-22T00:23:55;99494.00;;;10.60;65.94
27144;BME280;14672;50.250;8.312;2024-03-22T00:26:21;99497.47;;;10.52;66.31
27144;BME280;14672;50.250;8.312;2024-03-22T00:28:47;99494.81;;;10.45;66.71
27144;BME280;14672;50.250;8.312;2024-03-22T00:31:13;99493.78;;;10.55;66.20
27144;BME280;14672;50.250;8.312;2024-03-22T00:33:38;99492.69;;;10.49;65.21
27144;BME280;14672;50.250;8.312;2024-03-22T00:36:05;99492.97;;;10.38;65.53
27144;BME280;14672;50.250;8.312;2024-03-22T00:38:31;99488.94;;;10.35;66.12
27144;BME280;14672;50.250;8.312;2024-03-22T00:40:56;99483.63;;;10.38;66.15
27144;BME280;14672;50.250;8.312;2024-03-22T00:43:22;99495.78;;;10.22;66.95
27144;BME280;14672;50.250;8.312;2024-03-22T00:45:48;99485.56;;;10.24;66.33
27144;BME280;14672;50.250;8.312;2024-03-22T00:48:14;99480.78;;;10.21;66.54
27144;BME280;14672;50.250;8.312;2024-03-22T00:50:39;99478.94;;;10.11;66.06
27144;BME280;14672;50.250;8.312;2024-03-22T00:53:05;99480.72;;;10.05;66.53
27144;BME280;14672;50.250;8.312;2024-03-22T00:55:33;99468.13;;;10.06;65.93
27144;BME280;14672;50.250;8.312;2024-03-22T00:57:59;99470.97;;;10.06;65.54
27144;BME280;14672;50.250;8.312;2024-03-22T01:00:25;99475.91;;;10.02;65.26
27144;BME280;14672;50.250;8.312;2024-03-22T01:02:51;99467.03;;;10.00;65.26
27144;BME280;14672;50.250;8.312;2024-03-22T01:05:17;99468.22;;;9.67;66.07
27144;BME280;14672;50.250;8.312;2024-03-22T01:07:43;99455.47;;;9.75;65.34
27144;BME280;14672;50.250;8.312;2024-03-22T01:10:10;99462.72;;;9.76;65.58
27144;BME280;14672;50.250;8.312;2024-03-22T01:12:37;99462.88;;;9.69;65.55
27144;BME280;14672;50.250;8.312;2024-03-22T01:15:04;99470.97;;;9.70;65.29
27144;BME280;14672;50.250;8.312;2024-03-22T01:17:30;99470.09;;;9.54;65.73
27144;BME280;14672;50.250;8.312;2024-03-22T01:19:55;99464.72;;;9.59;66.61
27144;BME280;14672;50.250;8.312;2024-03-22T01:22:21;99462.25;;;9.61;65.74
27144;BME280;14672;50.250;8.312;2024-03-22T01:24:49;99462.31;;;9.58;66.54
27144;BME280;14672;50.250;8.312;2024-03-22T01:27:14;99462.41;;;9.54;66.43
27144;BME280;14672;50.250;8.312;2024-03-22T01:29:40;99460.88;;;9.50;66.23
27144;BME280;14672;50.250;8.312;2024-03-22T01:32:06;99464.28;;;9.61;66.14
27144;BME280;14672;50.250;8.312;2024-03-22T01:34:32;99461.44;;;9.61;66.54
27144;BME280;14672;50.250;8.312;2024-03-22T01:36:58;99455.91;;;9.54;66.58
27144;BME280;14672;50.250;8.312;2024-03-22T01:39:24;99458.63;;;9.41;66.48
27144;BME280;14672;50.250;8.312;2024-03-22T01:41:52;99448.22;;;9.34;66.97
27144;BME280;14672;50.250;8.312;2024-03-22T01:44:18;99453.75;;;9.41;67.13
27144;BME280;14672;50.250;8.312;2024-03-22T01:46:46;99433.97;;;9.38;67.18
27144;BME280;14672;50.250;8.312;2024-03-22T01:49:15;99437.63;;;9.38;67.13
27144;BME280;14672;50.250;8.312;2024-03-22T01:51:42;99437.38;;;9.29;67.09
27144;BME280;14672;50.250;8.312;2024-03-22T01:54:09;99433.81;;;9.25;67.08
27144;BME280;14672;50.250;8.312;2024-03-22T01:56:39;99429.84;;;9.23;67.70
27144;BME280;14672;50.250;8.312;2024-03-22T01:59:06;99425.97;;;9.33;66.75
27144;BME280;14672;50.250;8.312;2024-03-22T02:01:33;99427.28;;;9.28;66.96
27144;BME280;14672;50.250;8.312;2024-03-22T02:04:00;99430.34;;;9.18;66.86
27144;BME280;14672;50.250;8.312;2024-03-22T02:06:25;99429.13;;;9.19;66.70
27144;BME280;14672;50.250;8.312;2024-03-22T02:08:51;99427.72;;;9.07;67.05
27144;BME280;14672;50.250;8.312;2024-03-22T02:11:17;99425.09;;;9.16;66.71
27144;BME280;14672;50.250;8.312;2024-03-22T02:13:44;99418.34;;;9.10;66.75
27144;BME280;14672;50.250;8.312;2024-03-22T02:16:10;99413.41;;;9.14;66.92
27144;BME280;14672;50.250;8.312;2024-03-22T02:18:36;99409.13;;;9.06;66.70
27144;BME280;14672;50.250;8.312;2024-03-22T02:21:02;99413.19;;;9.05;66.82
27144;BME280;14672;50.250;8.312;2024-03-22T02:23:37;99420.81;;;9.08;66.69
27144;BME280;14672;50.250;8.312;2024-03-22T02:26:04;99417.25;;;9.04;66.56
27144;BME280;14672;50.250;8.312;2024-03-22T02:28:32;99416.09;;;9.02;67.41
27144;BME280;14672;50.250;8.312;2024-03-22T02:30:59;99406.13;;;9.13;66.24
27144;BME280;14672;50.250;8.312;2024-03-22T02:33:25;99409.91;;;9.07;67.76
27144;BME280;14672;50.250;8.312;2024-03-22T02:35:52;99403.44;;;9.06;67.30
27144;BME280;14672;50.250;8.312;2024-03-22T02:38:18;99401.50;;;9.03;67.16
27144;BME280;14672;50.250;8.312;2024-03-22T02:40:46;99401.91;;;9.02;67.38
27144;BME280;14672;50.250;8.312;2024-03-22T02:43:12;99393.50;;;8.98;67.44
27144;BME280;14672;50.250;8.312;2024-03-22T02:45:38;99399.38;;;9.07;67.57
27144;BME280;14672;50.250;8.312;2024-03-22T02:48:05;99384.19;;;8.98;67.67
27144;BME280;14672;50.250;8.312;2024-03-22T02:50:35;99391.53;;;8.95;68.84
27144;BME280;14672;50.250;8.312;2024-03-22T02:53:02;99389.19;;;8.90;68.44
27144;BME280;14672;50.250;8.312;2024-03-22T02:55:28;99382.31;;;8.91;68.24
27144;BME280;14672;50.250;8.312;2024-03-22T02:57:54;99379.41;;;8.94;67.68
27144;BME280;14672;50.250;8.312;2024-03-22T03:00:19;99376.78;;;9.04;67.49
27144;BME280;14672;50.250;8.312;2024-03-22T03:02:49;99372.34;;;9.03;67.13
27144;BME280;14672;50.250;8.312;2024-03-22T03:05:14;99370.81;;;8.98;69.20
27144;BME280;14672;50.250;8.312;2024-03-22T03:07:40;99362.41;;;8.94;67.74
27144;BME280;14672;50.250;8.312;2024-03-22T03:10:06;99363.94;;;8.99;67.77
27144;BME280;14672;50.250;8.312;2024-03-22T03:12:32;99359.50;;;8.98;68.17
27144;BME280;14672;50.250;8.312;2024-03-22T03:14:58;99352.22;;;8.97;68.20
27144;BME280;14672;50.250;8.312;2024-03-22T03:17:24;99358.34;;;8.95;67.85
27144;BME280;14672;50.250;8.312;2024-03-22T03:19:50;99356.22;;;9.00;68.00
27144;BME280;14672;50.250;8.312;2024-03-22T03:22:16;99365.66;;;8.93;67.67
27144;BME280;14672;50.250;8.312;2024-03-22T03:24:41;99364.03;;;8.92;67.64
27144;BME280;14672;50.250;8.312;2024-03-22T03:27:07;99358.69;;;8.98;67.27
27144;BME280;14672;50.250;8.312;2024-03-22T03:29:33;99354.31;;;8.93;67.56
27144;BME280;14672;50.250;8.312;2024-03-22T03:31:59;99347.13;;;8.88;67.69
27144;BME280;14672;50.250;8.312;2024-03-22T03:34:24;99349.88;;;8.92;68.05
27144;BME280;14672;50.250;8.312;2024-03-22T03:36:50;99348.81;;;8.86;68.16
27144;BME280;14672;50.250;8.312;2024-03-22T03:39:16;99344.59;;;8.94;68.01
27144;BME280;14672;50.250;8.312;2024-03-22T03:41:41;99336.50;;;8.92;68.42
27144;BME280;14672;50.250;8.312;2024-03-22T03:44:07;99341.25;;;8.99;68.42
27144;BME280;14672;50.250;8.312;2024-03-22T03:46:33;99326.75;;;9.13;68.63
27144;BME280;14672;50.250;8.312;2024-03-22T03:48:59;99337.59;;;9.18;68.48
27144;BME280;14672;50.250;8.312;2024-03-22T03:51:24;99330.69;;;9.19;69.43
27144;BME280;14672;50.250;8.312;2024-03-22T03:53:50;99325.03;;;9.19;68.77
27144;BME280;14672;50.250;8.312;2024-03-22T03:56:16;99326.69;;;9.17;69.30
27144;BME280;14672;50.250;8.312;2024-03-22T03:58:42;99315.25;;;9.20;69.84
27144;BME280;14672;50.250;8.312;2024-03-22T04:01:08;99311.72;;;9.16;69.24
27144;BME280;14672;50.250;8.312;2024-03-22T04:03:36;99301.91;;;9.21;69.39
27144;BME280;14672;50.250;8.312;2024-03-22T04:06:02;99301.28;;;9.29;69.87
27144;BME280;14672;50.250;8.312;2024-03-22T04:08:29;99299.34;;;9.26;70.15
27144;BME280;14672;50.250;8.312;2024-03-22T04:10:57;99297.94;;;9.34;69.84
27144;BME280;14672;50.250;8.312;2024-03-22T04:13:27;99297.31;;;9.27;70.83
27144;BME280;14672;50.250;8.312;2024-03-22T04:15:53;99294.13;;;9.41;70.52
27144;BME280;14672;50.250;8.312;2024-03-22T04:18:20;99287.56;;;9.44;70.94
27144;BME280;14672;50.250;8.312;2024-03-22T04:20:56;99295.28;;;9.43;70.93
27144;BME280;14672;50.250;8.312;2024-03-22T04:23:23;99287.56;;;9.44;70.75
27144;BME280;14672;50.250;8.312;2024-03-22T04:25:59;99288.06;;;9.59;70.80
27144;BME280;14672;50.250;8.312;2024-03-22T04:28:26;99296.28;;;9.53;70.68
27144;BME280;14672;50.250;8.312;2024-03-22T04:31:04;99289.81;;;9.53;70.75
27144;BME280;14672;50.250;8.312;2024-03-22T04:33:32;99290.53;;;9.57;70.78
27144;BME280;14672;50.250;8.312;2024-03-22T04:35:59;99282.47;;;9.55;71.10
27144;BME280;14672;50.250;8.312;2024-03-22T04:38:27;99288.06;;;9.59;71.25
27144;BME280;14672;50.250;8.312;2024-03-22T04:40:53;99286.38;;;9.61;71.69
27144;BME280;14672;50.250;8.312;2024-03-22T04:43:20;99289.47;;;9.67;72.32
27144;BME280;14672;50.250;8.312;2024-03-22T04:45:52;99281.41;;;9.65;71.21
27144;BME280;14672;50.250;8.312;2024-03-22T04:48:21;99289.47;;;9.67;71.48
27144;BME280;14672;50.250;8.312;2024-03-22T04:50:48;99286.00;;;9.75;71.03
27144;BME280;14672;50.250;8.312;2024-03-22T04:53:16;99290.34;;;9.80;71.25
27144;BME280;14672;50.250;8.312;2024-03-22T04:55:45;99290.34;;;9.80;70.97
27144;BME280;14672;50.250;8.312;2024-03-22T04:58:19;99286.47;;;9.74;71.00
27144;BME280;14672;50.250;8.312;2024-03-22T05:00:46;99283.72;;;9.86;70.57
27144;BME280;14672;50.250;8.312;2024-03-22T05:03:13;99283.97;;;9.92;71.02
27144;BME280;14672;50.250;8.312;2024-03-22T05:05:39;99278.66;;;9.94;70.60
27144;BME280;14672;50.250;8.312;2024-03-22T05:08:06;99280.41;;;9.88;70.80
27144;BME280;14672;50.250;8.312;2024-03-22T05:10:33;99272.09;;;9.97;70.87
27144;BME280;14672;50.250;8.312;2024-03-22T05:12:59;99268.34;;;10.00;71.27
27144;BME280;14672;50.250;8.312;2024-03-22T05:15:25;99276.94;;;9.97;71.32
27144;BME280;14672;50.250;8.312;2024-03-22T05:17:52;99274.72;;;10.04;70.94
27144;BME280;14672;50.250;8.312;2024-03-22T05:20:19;99273.81;;;10.07;71.69
27144;BME280;14672;50.250;8.312;2024-03-22T05:22:47;99279.06;;;10.09;71.32
27144;BME280;14672;50.250;8.312;2024-03-22T05:25:13;99277.66;;;10.17;71.08
27144;BME280;14672;50.250;8.312;2024-03-22T05:27:41;99287.44;;;10.16;71.19
27144;BME280;14672;50.250;8.312;2024-03-22T05:30:11;99281.13;;;10.24;71.72
27144;BME280;14672;50.250;8.312;2024-03-22T05:32:39;99288.41;;;10.25;71.15
27144;BME280;14672;50.250;8.312;2024-03-22T05:35:06;99279.97;;;10.22;72.12
27144;BME280;14672;50.250;8.312;2024-03-22T05:37:33;99269.22;;;10.29;71.79
27144;BME280;14672;50.250;8.312;2024-03-22T05:40:03;99273.09;;;10.35;71.32
27144;BME280;14672;50.250;8.312;2024-03-22T05:42:30;99272.59;;;10.24;72.25
27144;BME280;14672;50.250;8.312;2024-03-22T05:44:56;99271.41;;;10.38;71.66
27144;BME280;14672;50.250;8.312;2024-03-22T05:47:22;99266.97;;;10.37;71.84
27144;BME280;14672;50.250;8.312;2024-03-22T05:49:47;99264.03;;;10.41;71.80
27144;BME280;14672;50.250;8.312;2024-03-22T05:52:13;99271.66;;;10.44;71.79
27144;BME280;14672;50.250;8.312;2024-03-22T05:54:39;99247.59;;;10.48;72.35
27144;BME280;14672;50.250;8.312;2024-03-22T05:57:05;99248.38;;;10.49;73.02
27144;BME280;14672;50.250;8.312;2024-03-22T05:59:31;99244.78;;;10.61;72.12
27144;BME280;14672;50.250;8.312;2024-03-22T06:01:57;99239.09;;;10.61;71.81
27144;BME280;14672;50.250;8.312;2024-03-22T06:04:23;99243.56;;;10.62;72.46
27144;BME280;14672;50.250;8.312;2024-03-22T06:06:49;99238.78;;;10.71;72.34
27144;BME280;14672;50.250;8.312;2024-03-22T06:09:15;99245.06;;;10.79;72.62
27144;BME280;14672;50.250;8.312;2024-03-22T06:11:52;99241.66;;;10.84;72.46
27144;BME280;14672;50.250;8.312;2024-03-22T06:14:18;99245.56;;;10.90;72.65
27144;BME280;14672;50.250;8.312;2024-03-22T06:16:44;99232.38;;;10.96;73.00
27144;BME280;14672;50.250;8.312;2024-03-22T06:19:09;99234.66;;;11.01;72.86
27144;BME280;14672;50.250;8.312;2024-03-22T06:21:35;99234.53;;;11.05;72.73
27144;BME280;14672;50.250;8.312;2024-03-22T06:24:01;99234.78;;;11.10;72.96
27144;BME280;14672;50.250;8.312;2024-03-22T06:26:27;99228.06;;;11.17;72.46
27144;BME280;14672;50.250;8.312;2024-03-22T06:28:52;99238.88;;;11.22;72.54
27144;BME280;14672;50.250;8.312;2024-03-22T06:31:18;99228.50;;;11.28;72.67
27144;BME280;14672;50.250;8.312;2024-03-22T06:33:44;99229.19;;;11.32;72.90
27144;BME280;14672;50.250;8.312;2024-03-22T06:36:09;99217.03;;;11.44;72.53
27144;BME280;14672;50.250;8.312;2024-03-22T06:38:35;99232.72;;;11.49;72.60
27144;BME280;14672;50.250;8.312;2024-03-22T06:41:01;99229.75;;;11.52;72.39
27144;BME280;14672;50.250;8.312;2024-03-22T06:43:26;99221.47;;;11.58;72.29
27144;BME280;14672;50.250;8.312;2024-03-22T06:45:52;99222.47;;;11.64;72.81
27144;BME280;14672;50.250;8.312;2024-03-22T06:48:18;99220.09;;;11.62;73.08
27144;BME280;14672;50.250;8.312;2024-03-22T06:50:44;99215.66;;;11.74;72.43
27144;BME280;14672;50.250;8.312;2024-03-22T06:53:09;99213.50;;;11.78;73.03
27144;BME280;14672;50.250;8.312;2024-03-22T06:55:38;99213.38;;;11.82;73.24
27144;BME280;14672;50.250;8.312;2024-03-22T06:58:04;99211.88;;;11.90;72.90
27144;BME280;14672;50.250;8.312;2024-03-22T07:00:33;99213.66;;;11.96;72.60
27144;BME280;14672;50.250;8.312;2024-03-22T07:03:02;99197.56;;;12.02;73.41
27144;BME280;14672;50.250;8.312;2024-03-22T07:05:28;99211.44;;;12.13;72.74
27144;BME280;14672;50.250;8.312;2024-03-22T07:07:55;99187.72;;;12.16;73.26
27144;BME280;14672;50.250;8.312;2024-03-22T07:10:23;99186.56;;;12.26;73.17
27144;BME280;14672;50.250;8.312;2024-03-22T07:12:54;99183.09;;;12.31;73.99
27144;BME280;14672;50.250;8.312;2024-03-22T07:15:24;99185.56;;;12.42;73.70
27144;BME280;14672;50.250;8.312;2024-03-22T07:17:50;99182.91;;;12.47;72.92
27144;BME280;14672;50.250;8.312;2024-03-22T07:20:17;99195.97;;;12.57;72.22
27144;BME280;14672;50.250;8.312;2024-03-22T07:22:43;99190.16;;;12.70;71.92
27144;BME280;14672;50.250;8.312;2024-03-22T07:25:09;99195.13;;;12.79;72.59
27144;BME280;14672;50.250;8.312;2024-03-22T07:27:38;99189.94;;;12.86;73.66
27144;BME280;14672;50.250;8.312;2024-03-22T07:30:04;99177.94;;;12.91;73.45
27144;BME280;14672;50.250;8.312;2024-03-22T07:32:31;99184.97;;;12.99;72.62
27144;BME280;14672;50.250;8.312;2024-03-22T07:34:57;99181.25;;;13.11;73.26
27144;BME280;14672;50.250;8.312;2024-03-22T07:37:23;99182.88;;;13.22;73.58
27144;BME280;14672;50.250;8.312;2024-03-22T07:39:49;99171.50;;;13.31;73.87
27144;BME280;14672;50.250;8.312;2024-03-22T07:42:14;99171.06;;;13.41;74.50
27144;BME280;14672;50.250;8.312;2024-03-22T07:44:40;99164.09;;;13.51;74.69
27144;BME280;14672;50.250;8.312;2024-03-22T07:47:06;99158.56;;;13.57;73.73
27144;BME280;14672;50.250;8.312;2024-03-22T07:49:32;99169.19;;;13.65;71.63
27144;BME280;14672;50.250;8.312;2024-03-22T07:52:02;99163.69;;;13.80;70.63
27144;BME280;14672;50.250;8.312;2024-03-22T07:54:28;99155.44;;;13.82;69.27
27144;BME280;14672;50.250;8.312;2024-03-22T07:56:54;99157.69;;;13.96;69.08
27144;BME280;14672;50.250;8.312;2024-03-22T07:59:19;99153.56;;;13.88;68.10
27144;BME280;14672;50.250;8.312;2024-03-22T08:01:45;99150.06;;;14.11;67.49
27144;BME280;14672;50.250;8.312;2024-03-22T08:04:12;99144.97;;;14.16;67.18
27144;BME280;14672;50.250;8.312;2024-03-22T08:06:38;99142.44;;;14.27;66.95
27144;BME280;14672;50.250;8.312;2024-03-22T08:09:03;99146.91;;;14.37;66.88
27144;BME280;14672;50.250;8.312;2024-03-22T08:11:29;99142.75;;;14.38;66.59
27144;BME280;14672;50.250;8.312;2024-03-22T08:13:55;99138.97;;;14.41;65.60
27144;BME280;14672;50.250;8.312;2024-03-22T08:16:29;99139.72;;;14.60;65.59
27144;BME280;14672;50.250;8.312;2024-03-22T08:18:55;99135.72;;;14.66;65.05
27144;BME280;14672;50.250;8.312;2024-03-22T08:21:22;99138.75;;;14.72;64.55
27144;BME280;14672;50.250;8.312;2024-03-22T08:23:49;99133.19;;;14.68;64.22
27144;BME280;14672;50.250;8.312;2024-03-22T08:26:15;99134.13;;;14.74;64.30
27144;BME280;14672;50.250;8.312;2024-03-22T08:28:40;99132.50;;;14.82;63.13
27144;BME280;14672;50.250;8.312;2024-03-22T08:31:06;99132.31;;;14.86;63.13
27144;BME280;14672;50.250;8.312;2024-03-22T08:33:32;99129.53;;;15.10;63.01
27144;BME280;14672;50.250;8.312;2024-03-22T08:35:58;99117.59;;;15.20;62.72
27144;BME280;14672;50.250;8.312;2024-03-22T08:38:23;99124.53;;;15.28;62.29
27144;BME280;14672;50.250;8.312;2024-03-22T08:40:50;99119.66;;;15.20;61.57
27144;BME280;14672;50.250;8.312;2024-03-22T08:43:16;99106.81;;;15.39;61.15
27144;BME280;14672;50.250;8.312;2024-03-22T08:45:42;99105.03;;;15.41;60.91
27144;BME280;14672;50.250;8.312;2024-03-22T08:48:08;99100.56;;;15.49;60.39
27144;BME280;14672;50.250;8.312;2024-03-22T08:50:34;99102.81;;;15.69;60.15
27144;BME280;14672;50.250;8.312;2024-03-22T08:53:00;99093.28;;;15.72;59.41
27144;BME280;14672;50.250;8.312;2024-03-22T08:55:29;99085.38;;;15.82;58.82
27144;BME280;14672;50.250;8.312;2024-03-22T08:57:54;99089.28;;;15.70;59.65
27144;BME280;14672;50.250;8.312;2024-03-22T09:00:20;99084.31;;;15.94;58.80
27144;BME280;14672;50.250;8.312;2024-03-22T09:02:46;99083.84;;;15.95;58.87
27144;BME280;14672;50.250;8.312;2024-03-22T09:05:13;99086.81;;;16.01;58.24
27144;BME280;14672;50.250;8.312;2024-03-22T09:07:38;99075.78;;;16.23;58.86
27144;BME280;14672;50.250;8.312;2024-03-22T09:10:06;99069.53;;;16.25;58.19
27144;BME280;14672;50.250;8.312;2024-03-22T09:12:32;99064.13;;;16.41;57.89
27144;BME280;14672;50.250;8.312;2024-03-22T09:14:57;99065.22;;;16.44;57.86
27144;BME280;14672;50.250;8.312;2024-03-22T09:17:23;99063.84;;;16.39;58.14
27144;BME280;14672;50.250;8.312;2024-03-22T09:19:49;99066.31;;;16.61;57.81
27144;BME280;14672;50.250;8.312;2024-03-22T09:22:15;99061.69;;;16.64;57.66
27144;BME280;14672;50.250;8.312;2024-03-22T09:24:41;99059.50;;;16.73;57.45
27144;BME280;14672;50.250;8.312;2024-03-22T09:27:06;99068.16;;;16.94;57.10
27144;BME280;14672;50.250;8.312;2024-03-22T09:29:37;99047.41;;;16.84;57.38
27144;BME280;14672;50.250;8.312;2024-03-22T09:32:03;99045.22;;;16.94;57.07
27144;BME280;14672;50.250;8.312;2024-03-22T09:34:29;99043.75;;;17.18;56.65
27144;BME280;14672;50.250;8.312;2024-03-22T09:36:58;99036.38;;;17.32;56.65
27144;BME280;14672;50.250;8.312;2024-03-22T09:39:24;99024.13;;;17.31;56.67
27144;BME280;14672;50.250;8.312;2024-03-22T09:41:51;99033.72;;;17.49;55.97
27144;BME280;14672;50.250;8.312;2024-03-22T09:44:19;99025.94;;;17.69;56.48
27144;BME280;14672;50.250;8.312;2024-03-22T09:46:46;99026.06;;;17.80;56.20
27144;BME280;14672;50.250;8.312;2024-03-22T09:49:13;99016.03;;;17.70;55.33
27144;BME280;14672;50.250;8.312;2024-03-22T09:51:43;99015.22;;;17.90;54.98
27144;BME280;14672;50.250;8.312;2024-03-22T09:54:12;99020.09;;;17.84;54.84
27144;BME280;14672;50.250;8.312;2024-03-22T09:56:39;99006.22;;;18.03;54.63
27144;BME280;14672;50.250;8.312;2024-03-22T09:59:06;99008.84;;;18.32;54.04
27144;BME280;14672;50.250;8.312;2024-03-22T10:01:34;99015.50;;;18.18;54.30
27144;BME280;14672;50.250;8.312;2024-03-22T10:04:00;99004.91;;;18.29;53.82
27144;BME280;14672;50.250;8.312;2024-03-22T10:06:26;99002.28;;;18.31;53.52
27144;BME280;14672;50.250;8.312;2024-03-22T10:08:52;98994.50;;;18.38;52.94
27144;BME280;14672;50.250;8.312;2024-03-22T10:11:18;98997.75;;;18.76;52.73
27144;BME280;14672;50.250;8.312;2024-03-22T10:13:44;99009.63;;;18.90;51.71
27144;BME280;14672;50.250;8.312;2024-03-22T10:16:10;98973.66;;;19.16;51.29
27144;BME280;14672;50.250;8.312;2024-03-22T10:18:36;98976.34;;;19.26;50.82
27144;BME280;14672;50.250;8.312;2024-03-22T10:21:05;98977.59;;;19.19;50.69
27144;BME280;14672;50.250;8.312;2024-03-22T10:23:32;98970.50;;;19.14;51.05
27144;BME280;14672;50.250;8.312;2024-03-22T10:25:58;98963.19;;;19.19;50.86
27144;BME280;14672;50.250;8.312;2024-03-22T10:28:28;98962.94;;;19.17;50.85
27144;BME280;14672;50.250;8.312;2024-03-22T10:30:54;98967.41;;;19.18;50.88
27144;BME280;14672;50.250;8.312;2024-03-22T10:33:21;98962.59;;;19.52;50.43
27144;BME280;14672;50.250;8.312;2024-03-22T10:35:52;98952.53;;;19.36;49.72
27144;BME280;14672;50.250;8.312;2024-03-22T10:38:20;98951.09;;;19.63;49.73
27144;BME280;14672;50.250;8.312;2024-03-22T10:40:49;98945.09;;;19.72;49.79
27144;BME280;14672;50.250;8.312;2024-03-22T10:43:16;98951.44;;;19.87;49.29
27144;BME280;14672;50.250;8.312;2024-03-22T10:45:42;98944.16;;;20.31;48.77
27144;BME280;14672;50.250;8.312;2024-03-22T10:48:12;98939.97;;;20.43;47.60
27144;BME280;14672;50.250;8.312;2024-03-22T10:50:41;98935.78;;;20.49;46.53
27144;BME280;14672;50.250;8.312;2024-03-22T10:53:18;98929.22;;;20.54;47.33
27144;BME280;14672;50.250;8.312;2024-03-22T10:55:48;98913.47;;;20.78;47.41
27144;BME280;14672;50.250;8.312;2024-03-22T10:58:21;98921.34;;;20.60;46.93
27144;BME280;14672;50.250;8.312;2024-03-22T11:00:50;98911.91;;;20.66;47.32
27144;BME280;14672;50.250;8.312;2024-03-22T11:03:21;98907.84;;;21.07;46.08
27144;BME280;14672;50.250;8.312;2024-03-22T11:05:56;98910.16;;;21.31;45.91
27144;BME280;14672;50.250;8.312;2024-03-22T11:08:31;98885.66;;;21.43;45.48
27144;BME280;14672;50.250;8.312;2024-03-22T11:10:57;98889.47;;;21.16;45.83
27144;BME280;14672;50.250;8.312;2024-03-22T11:13:23;98896.66;;;20.82;45.93
27144;BME280;14672;50.250;8.312;2024-03-22T11:15:50;98889.75;;;20.96;46.14
27144;BME280;14672;50.250;8.312;2024-03-22T11:18:17;98886.13;;;20.79;46.68
27144;BME280;14672;50.250;8.312;2024-03-22T11:20:44;98886.72;;;20.60;46.46
27144;BME280;14672;50.250;8.312;2024-03-22T11:23:11;98885.94;;;20.43;46.68
27144;BME280;14672;50.250;8.312;2024-03-22T11:25:36;98882.50;;;20.50;46.67
27144;BME280;14672;50.250;8.312;2024-03-22T11:28:03;98873.03;;;20.67;47.16
27144;BME280;14672;50.250;8.312;2024-03-22T11:30:31;98868.28;;;20.75;47.23
27144;BME280;14672;50.250;8.312;2024-03-22T11:33:01;98850.41;;;20.93;47.36
27144;BME280;14672;50.250;8.312;2024-03-22T11:35:27;98858.50;;;21.00;47.32
27144;BME280;14672;50.250;8.312;2024-03-22T11:37:53;98853.50;;;21.17;47.15
27144;BME280;14672;50.250;8.312;2024-03-22T11:40:19;98849.84;;;21.05;46.84
27144;BME280;14672;50.250;8.312;2024-03-22T11:42:47;98851.66;;;21.03;46.47
27144;BME280;14672;50.250;8.312;2024-03-22T11:45:17;98836.06;;;21.34;45.94
27144;BME280;14672;50.250;8.312;2024-03-22T11:47:45;98846.63;;;21.20;45.82
27144;BME280;14672;50.250;8.312;2024-03-22T11:50:12;98840.28;;;21.27;46.34
27144;BME280;14672;50.250;8.312;2024-03-22T11:52:42;98834.78;;;21.24;46.46
27144;BME280;14672;50.250;8.312;2024-03-22T11:55:10;98828.28;;;21.12;46.13
27144;BME280;14672;50.250;8.312;2024-03-22T11:57:36;98826.41;;;21.20;46.12
27144;BME280;14672;50.250;8.312;2024-03-22T12:00:04;98831.91;;;21.18;45.92
27144;BME280;14672;50.250;8.312;2024-03-22T12:02:35;98828.09;;;20.93;46.48
27144;BME280;14672;50.250;8.312;2024-03-22T12:05:03;98825.75;;;20.81;46.88
27144;BME280;14672;50.250;8.312;2024-03-22T12:07:30;98821.00;;;20.89;46.30
27144;BME280;14672;50.250;8.312;2024-03-22T12:09:55;98817.56;;;20.90;47.03
27144;BME280;14672;50.250;8.312;2024-03-22T12:12:22;98810.03;;;20.82;46.65
27144;BME280;14672;50.250;8.312;2024-03-22T12:14:48;98809.25;;;20.76;46.66
27144;BME280;14672;50.250;8.312;2024-03-22T12:17:17;98802.16;;;20.71;47.31
27144;BME280;14672;50.250;8.312;2024-03-22T12:19:43;98800.34;;;20.62;47.14
27144;BME280;14672;50.250;8.312;2024-03-22T12:22:09;98805.63;;;20.53;47.21
27144;BME280;14672;50.250;8.312;2024-03-22T12:24:36;98806.94;;;20.57;47.62
27144;BME280;14672;50.250;8.312;2024-03-22T12:27:02;98810.38;;;20.45;48.45
27144;BME280;14672;50.250;8.312;2024-03-22T12:29:28;98802.50;;;20.45;47.74
27144;BME280;14672;50.250;8.312;2024-03-22T12:31:54;98792.78;;;20.48;47.31
27144;BME280;14672;50.250;8.312;2024-03-22T12:34:20;98801.47;;;20.32;47.56
27144;BME280;14672;50.250;8.312;2024-03-22T12:36:46;98796.50;;;20.04;47.67
27144;BME280;14672;50.250;8.312;2024-03-22T12:39:11;98795.16;;;20.28;47.61
27144;BME280;14672;50.250;8.312;2024-03-22T12:41:37;98790.72;;;20.32;47.95
27144;BME280;14672;50.250;8.312;2024-03-22T12:44:03;98793.59;;;20.27;47.35
27144;BME280;14672;50.250;8.312;2024-03-22T12:46:32;98788.91;;;20.01;45.96
27144;BME280;14672;50.250;8.312;2024-03-22T12:48:57;98789.72;;;20.02;45.58
27144;BME280;14672;50.250;8.312;2024-03-22T12:51:23;98799.69;;;19.90;46.02
27144;BME280;14672;50.250;8.312;2024-03-22T12:53:49;98791.78;;;19.96;45.79
27144;BME280;14672;50.250;8.312;2024-03-22T12:56:15;98787.34;;;19.84;45.89
27144;BME280;14672;50.250;8.312;2024-03-22T12:58:41;98800.72;;;19.70;46.06
27144;BME280;14672;50.250;8.312;2024-03-22T13:01:09;98787.34;;;19.67;45.88